createdAt,value
2019-05-19T00:01:01.476Z,96342.11
2019-05-19T00:06:04.934Z,96333.84
2019-05-19T00:11:08.244Z,96340.33
2019-05-19T00:16:11.553Z,96348.59
2019-05-19T00:21:14.862Z,96340.11
2019-05-19T00:26:18.170Z,96339.06
2019-05-19T00:31:21.617Z,96345.72
2019-05-19T00:36:25.010Z,96343.18
2019-05-19T00:41:28.313Z,96339.37
2019-05-19T00:46:31.757Z,96347.97
2019-05-19T00:51:35.238Z,96339.85
2019-05-19T00:56:38.537Z,96348.82
2019-05-19T01:01:41.954Z,96344.08
2019-05-19T01:06:45.263Z,96337.72
2019-05-19T01:11:48.570Z,96337.39
2019-05-19T01:16:51.929Z,96336.48
2019-05-19T01:21:56.344Z,96344.55
2019-05-19T01:26:59.639Z,96342.19
2019-05-19T01:32:02.997Z,96343.75
2019-05-19T01:37:06.239Z,96346.50
2019-05-19T01:42:09.537Z,96344.22
2019-05-19T01:47:12.862Z,96342.09
2019-05-19T01:52:16.168Z,96349.95
2019-05-19T01:57:19.478Z,96349.83
2019-05-19T02:02:22.869Z,96342.78
2019-05-19T02:07:26.321Z,96348.50
2019-05-19T02:12:29.696Z,96343.72
2019-05-19T02:17:32.997Z,96345.73
2019-05-19T02:22:36.295Z,96350.97
2019-05-19T02:27:39.595Z,96344.76
2019-05-19T02:32:43.022Z,96341.31
2019-05-19T02:37:46.309Z,96352.94
2019-05-19T02:42:51.079Z,96348.41
2019-05-19T02:47:54.440Z,96356.60
2019-05-19T02:52:59.303Z,96356.78
2019-05-19T02:58:03.364Z,96360.59
2019-05-19T03:03:07.203Z,96361.69
2019-05-19T03:08:10.514Z,96360.77
2019-05-19T03:13:13.803Z,96361.59
2019-05-19T03:18:17.114Z,96360.83
2019-05-19T03:23:20.422Z,96371.27
2019-05-19T03:28:23.742Z,96369.82
2019-05-19T03:33:28.701Z,96373.44
2019-05-19T03:38:31.992Z,96367.30
2019-05-19T03:43:35.299Z,96366.44
2019-05-19T03:48:38.598Z,96370.49
2019-05-19T03:53:41.889Z,96377.98
2019-05-19T03:58:45.234Z,96369.48
2019-05-19T04:03:48.512Z,96365.56
2019-05-19T04:08:51.810Z,96369.61
2019-05-19T04:13:55.115Z,96367.88
2019-05-19T04:18:58.408Z,96373.29
2019-05-19T04:24:01.719Z,96376.23
2019-05-19T04:29:05.048Z,96378.23
2019-05-19T04:34:08.345Z,96375.56
2019-05-19T04:39:11.644Z,96371.55
2019-05-19T04:44:14.952Z,96371.38
2019-05-19T04:49:18.255Z,96376.54
2019-05-19T04:54:21.565Z,96368.76
2019-05-19T04:59:24.877Z,96373.41
2019-05-19T05:04:29.489Z,96374.50
2019-05-19T05:09:33.075Z,96373.34
2019-05-19T05:14:36.366Z,96377.46
2019-05-19T05:19:39.671Z,96367.53
2019-05-19T05:24:43.044Z,96372.65
2019-05-19T05:29:46.340Z,96361.25
2019-05-19T05:34:49.651Z,96364.19
2019-05-19T05:39:52.979Z,96370.78
2019-05-19T05:44:56.289Z,96378.12
2019-05-19T05:49:59.598Z,96364.59
2019-05-19T05:55:02.965Z,96362.52
2019-05-19T06:00:07.867Z,96360.50
2019-05-19T06:05:11.303Z,96372.41
2019-05-19T06:10:14.691Z,96368.12
2019-05-19T06:15:17.989Z,96361.86
2019-05-19T06:20:21.297Z,96357.30
2019-05-19T06:25:24.696Z,96359.85
2019-05-19T06:30:28.025Z,96363.11
2019-05-19T06:35:31.343Z,96363.16
2019-05-19T06:40:34.660Z,96359.72
2019-05-19T06:45:37.978Z,96361.52
2019-05-19T06:50:41.299Z,96362.52
2019-05-19T06:55:44.593Z,96362.59
2019-05-19T07:00:47.899Z,96362.62
2019-05-19T07:05:51.240Z,96365.27
2019-05-19T07:10:54.523Z,96364.31
2019-05-19T07:15:57.860Z,96366.03
2019-05-19T07:21:01.235Z,96353.09
2019-05-19T07:26:04.548Z,96352.53
2019-05-19T07:31:07.851Z,96343.77
2019-05-19T07:36:11.165Z,96336.48
2019-05-19T07:41:14.505Z,96328.42
2019-05-19T07:46:17.815Z,96324.95
2019-05-19T07:51:21.129Z,96324.95
2019-05-19T07:56:24.557Z,96322.55
2019-05-19T08:01:27.834Z,96322.34
2019-05-19T08:06:31.128Z,96312.71
2019-05-19T08:11:34.791Z,96306.47
2019-05-19T08:16:38.107Z,96307.84
2019-05-19T08:21:41.390Z,96305.20
2019-05-19T08:26:44.695Z,96300.57
2019-05-19T08:31:48.020Z,96294.95
2019-05-19T08:36:51.320Z,96290.64
2019-05-19T08:41:54.639Z,96288.44
2019-05-19T08:46:57.952Z,96287.94
2019-05-19T08:52:01.302Z,96288.22
2019-05-19T08:57:04.558Z,96286.05
2019-05-19T09:02:07.883Z,96282.46
2019-05-19T09:07:11.174Z,96277.63
2019-05-19T09:12:14.509Z,96277.50
2019-05-19T09:17:17.853Z,96268.67
2019-05-19T09:22:21.171Z,96268.63
2019-05-19T09:27:24.474Z,96257.13
2019-05-19T09:32:28.015Z,96257.13
2019-05-19T09:37:31.380Z,96252.67
2019-05-19T09:42:34.682Z,96255.67
2019-05-19T09:47:39.027Z,96251.16
2019-05-19T09:52:42.301Z,96241.25
2019-05-19T09:57:45.637Z,96243.00
2019-05-19T10:02:49.043Z,96243.81
2019-05-19T10:07:52.356Z,96239.61
2019-05-19T10:12:55.660Z,96238.64
2019-05-19T10:17:58.965Z,96232.77
2019-05-19T10:23:02.305Z,96236.55
2019-05-19T10:28:05.619Z,96224.88
2019-05-19T10:33:09.015Z,96227.72
2019-05-19T10:38:12.332Z,96220.70
2019-05-19T10:43:15.651Z,96221.34
2019-05-19T10:48:18.951Z,96218.72
2019-05-19T10:53:22.254Z,96219.78
2019-05-19T10:58:25.651Z,96215.92
2019-05-19T11:03:28.958Z,96228.57
2019-05-19T11:08:32.267Z,96217.41
2019-05-19T11:13:35.743Z,96213.59
2019-05-19T11:18:39.024Z,96205.47
2019-05-19T11:23:42.320Z,96209.25
2019-05-19T11:28:45.640Z,96199.08
2019-05-19T11:33:49.009Z,96197.73
2019-05-19T11:38:52.342Z,96191.09
2019-05-19T11:43:55.649Z,96200.70
2019-05-19T11:48:58.972Z,96193.19
2019-05-19T11:54:02.327Z,96191.39
2019-05-19T11:59:05.654Z,96184.66
2019-05-19T12:04:09.120Z,96186.61
2019-05-19T12:09:12.388Z,96184.11
2019-05-19T12:14:16.647Z,96176.27
2019-05-19T12:19:19.936Z,96185.88
2019-05-19T12:24:23.259Z,96179.45
2019-05-19T12:29:26.575Z,96169.69
2019-05-19T12:34:29.874Z,96170.91
2019-05-19T12:39:33.166Z,96164.44
2019-05-19T12:44:36.513Z,96166.59
2019-05-19T12:49:39.826Z,96156.80
2019-05-19T12:54:43.141Z,96157.99
2019-05-19T12:59:46.440Z,96149.96
2019-05-19T13:05:04.212Z,96151.39
2019-05-19T13:09:54.779Z,96142.77
2019-05-19T13:14:58.090Z,96141.17
2019-05-19T13:20:01.384Z,96131.30
2019-05-19T13:25:05.564Z,96136.75
2019-05-19T13:30:09.199Z,96126.16
2019-05-19T13:35:12.737Z,96130.28
2019-05-19T13:40:16.108Z,96135.19
2019-05-19T13:45:20.255Z,96127.77
2019-05-19T13:50:23.541Z,96117.66
2019-05-19T13:55:26.855Z,96107.95
2019-05-19T14:00:30.151Z,96111.93
2019-05-19T14:05:33.508Z,96104.95
2019-05-19T14:10:36.875Z,96095.60
2019-05-19T14:15:41.941Z,96095.22
2019-05-19T14:20:45.219Z,96083.87
2019-05-19T14:25:48.541Z,96082.87
2019-05-19T14:30:51.840Z,96077.57
2019-05-19T14:35:55.183Z,96075.39
2019-05-19T14:40:58.486Z,96069.05
2019-05-19T14:46:01.820Z,96071.23
2019-05-19T14:51:05.136Z,96073.31
2019-05-19T14:56:08.426Z,96063.48
2019-05-19T15:01:11.783Z,96061.41
2019-05-19T15:06:15.085Z,96059.85
2019-05-19T15:11:18.418Z,96062.64
2019-05-19T15:16:21.725Z,96056.45
2019-05-19T15:21:25.014Z,96059.28
2019-05-19T15:26:29.323Z,96051.94
2019-05-19T15:31:32.642Z,96045.05
2019-05-19T15:36:35.968Z,96044.55
2019-05-19T15:41:39.268Z,96038.39
2019-05-19T15:46:42.593Z,96033.64
2019-05-19T15:52:00.778Z,96032.28
2019-05-19T15:56:51.091Z,96029.57
2019-05-19T16:01:54.391Z,96035.16
2019-05-19T16:06:57.714Z,96038.46
2019-05-19T16:12:01.054Z,96035.30
2019-05-19T16:17:04.344Z,96034.50
2019-05-19T16:22:07.661Z,96044.82
2019-05-19T16:27:12.833Z,96047.98
2019-05-19T16:32:16.005Z,96049.88
2019-05-19T16:37:19.298Z,96055.91
2019-05-19T16:42:22.663Z,96073.39
2019-05-19T16:47:26.024Z,96078.35
2019-05-19T16:52:29.305Z,96083.37
2019-05-19T16:57:32.584Z,96080.25
2019-05-19T17:02:35.862Z,96083.78
2019-05-19T17:07:39.210Z,96086.25
2019-05-19T17:12:42.461Z,96083.73
2019-05-19T17:17:45.865Z,96087.50
2019-05-19T17:22:49.299Z,96103.59
2019-05-19T17:27:53.547Z,96112.60
2019-05-19T17:32:56.924Z,96127.14
2019-05-19T17:38:00.268Z,96132.13
2019-05-19T17:43:03.553Z,96138.13
2019-05-19T17:48:10.309Z,96137.41
2019-05-19T17:53:12.920Z,96140.91
2019-05-19T17:58:16.293Z,96139.05
2019-05-19T18:03:19.603Z,96140.91
2019-05-19T18:08:23.076Z,96148.23
2019-05-19T18:13:26.825Z,96153.52
2019-05-19T18:18:30.210Z,96145.59
2019-05-19T18:23:34.961Z,96145.05
2019-05-19T18:28:42.049Z,96138.99
2019-05-19T18:33:47.122Z,96139.20
2019-05-19T18:38:50.513Z,96148.20
2019-05-19T18:43:55.834Z,96142.20
2019-05-19T18:48:59.351Z,96129.28
2019-05-19T18:54:02.796Z,96130.25
2019-05-19T18:59:06.181Z,96128.34
2019-05-19T19:04:10.734Z,96139.94
2019-05-19T19:09:14.635Z,96141.44
2019-05-19T19:14:20.201Z,96143.72
2019-05-19T19:19:25.182Z,96150.02
2019-05-19T19:24:28.888Z,96157.61
2019-05-19T19:29:32.684Z,96155.48
2019-05-19T19:34:36.543Z,96157.66
2019-05-19T19:39:40.095Z,96154.59
2019-05-19T19:44:43.723Z,96149.67
2019-05-19T19:49:48.030Z,96149.50
2019-05-19T19:54:54.281Z,96154.54
2019-05-19T20:00:15.789Z,96161.14
2019-05-19T20:05:09.345Z,96166.66
2019-05-19T20:10:12.954Z,96161.78
2019-05-19T20:15:16.472Z,96162.39
2019-05-19T20:20:19.976Z,96159.97
2019-05-19T20:25:23.420Z,96159.52
2019-05-19T20:30:35.743Z,96158.73
2019-05-19T20:35:33.376Z,96163.92
2019-05-19T20:40:36.851Z,96165.22
2019-05-19T20:45:40.285Z,96169.35
2019-05-19T20:50:43.592Z,96171.02
2019-05-19T20:55:47.268Z,96167.91
2019-05-19T21:00:51.963Z,96166.36
2019-05-19T21:05:55.490Z,96155.14
2019-05-19T21:10:59.019Z,96151.95
2019-05-19T21:16:02.294Z,96141.78
2019-05-19T21:21:06.621Z,96147.43
2019-05-19T21:26:10.065Z,96149.25
2019-05-19T21:31:13.459Z,96145.41
2019-05-19T21:36:16.997Z,96146.06
2019-05-19T21:41:20.280Z,96146.06
2019-05-19T21:46:23.590Z,96138.80
2019-05-19T21:51:26.872Z,96144.39
2019-05-19T21:56:30.304Z,96151.31
2019-05-19T22:01:34.007Z,96153.19
2019-05-19T22:06:39.075Z,96147.84
2019-05-19T22:11:42.392Z,96143.52
2019-05-19T22:16:45.677Z,96142.77
2019-05-19T22:21:48.993Z,96140.72
2019-05-19T22:26:52.306Z,96143.41
2019-05-19T22:31:55.582Z,96156.59
2019-05-19T22:36:58.876Z,96171.11
2019-05-19T22:42:02.222Z,96171.80
2019-05-19T22:47:05.510Z,96172.28
2019-05-19T22:52:08.817Z,96168.88
2019-05-19T22:57:12.131Z,96181.28
2019-05-19T23:02:15.446Z,96185.48
2019-05-19T23:07:18.759Z,96187.98
2019-05-19T23:12:22.117Z,96194.06
2019-05-19T23:17:25.414Z,96192.34
2019-05-19T23:22:28.716Z,96192.35
2019-05-19T23:27:32.114Z,96186.78
2019-05-19T23:32:35.528Z,96185.53
2019-05-19T23:37:38.896Z,96187.42
2019-05-19T23:42:42.259Z,96201.28
2019-05-19T23:47:45.554Z,96179.02
2019-05-19T23:52:49.027Z,96174.14
2019-05-19T23:57:53.680Z,96175.48
